Byron, Minnesota
Current Conditions -  °F | °C
As of 9:34 PM on Friday 24 Oct 2014 (Local Time) from K9MN Reporting Station
Overcast Overcast  
Wind Chill: 55°   Ceiling: 300
Heat Index: 55°   Visibility: 0.25mi
Dew Point: 55°   Wind: 3mph
Humidity: 98%   Direction: 170°S
Pressure: 29.9"   Gusts: NA
Location:  44.03°N, 92.65°W
Report Text: K9MN 250234Z AUTO 17003KT 1/4SM OVC003 13/13 A2990 RMK AO1 T01300127
Loading
Personal Weather Stations






























Interactive Weather Map New forecast layout! Learn more

10-Day Weather Forecast

Advertisements
Track Severe Weather on mobile